Time;durP1;ratioP1;P1;durP2;ratioP2;P2;SDS_P1;SDS_P2;PMS_P1;PMS_P2;Temp;Humidity;BMP_temperature;BMP_pressure;BME280_temperature;BME280_humidity;BME280_pressure;Samples;Min_cycle;Max_cycle;Signal;HPM_P1;HPM_P2
2023/01/14 00:01:32;;;;;;;0.90;0.90;;;9.10;99.90;;;9.12;76.30;100990.31;5047775;28;20639;-68
2023/01/14 00:04:00;;;;;;;0.77;0.70;;;9.10;99.90;;;9.05;76.78;100986.38;5050673;28;20670;-65
2023/01/14 00:06:31;;;;;;;9.33;1.10;;;9.10;99.90;;;9.04;77.01;100987.34;5031539;28;20629;-66
2023/01/14 00:09:02;;;;;;;6.80;1.00;;;9.00;99.90;;;9.04;77.08;100981.28;5011083;28;21029;-67
2023/01/14 00:11:48;;;;;;;4.73;1.77;;;9.00;99.90;;;9.01;76.99;100984.91;5011262;28;20649;-64
2023/01/14 00:14:22;;;;;;;0.50;0.50;;;9.00;99.90;;;9.01;77.22;100986.66;5011764;28;20617;-66
2023/01/14 00:16:51;;;;;;;1.13;0.90;;;9.00;99.90;;;8.98;77.65;100995.50;5020121;28;20636;-66
2023/01/14 00:19:19;;;;;;;1.80;0.83;;;8.90;99.90;;;8.96;77.49;100988.72;5030676;28;20655;-68
2023/01/14 00:21:46;;;;;;;7.53;0.90;;;8.90;99.90;;;8.92;77.61;100997.63;5026386;28;20665;-68
2023/01/14 00:24:15;;;;;;;0.67;0.67;;;8.90;99.90;;;8.87;77.63;100997.06;5033130;28;20862;-65
2023/01/14 00:26:42;;;;;;;0.73;0.73;;;8.80;99.90;;;8.84;78.53;100990.25;5014119;28;20637;-65
2023/01/14 00:29:17;;;;;;;0.63;0.57;;;8.80;99.90;;;8.80;78.77;100993.97;5028230;28;20623;-66
2023/01/14 00:31:45;;;;;;;2.33;0.83;;;8.80;99.90;;;8.79;78.94;100988.88;5030685;28;20654;-65
2023/01/14 00:34:14;;;;;;;1.93;0.90;;;8.80;99.90;;;8.73;79.08;100992.66;5014134;28;20629;-66
2023/01/14 00:36:44;;;;;;;0.93;0.60;;;8.70;99.90;;;8.72;78.97;100998.81;5011056;28;20621;-67
2023/01/14 00:39:12;;;;;;;0.87;0.80;;;8.70;99.90;;;8.63;80.34;101001.94;5025664;28;20636;-66
2023/01/14 00:41:39;;;;;;;1.03;0.67;;;8.60;99.90;;;8.58;79.78;100998.78;5025719;28;20656;-66
2023/01/14 00:44:06;;;;;;;0.67;0.63;;;8.60;99.90;;;8.55;79.88;100999.78;5010755;28;21303;-66
2023/01/14 00:46:36;;;;;;;1.43;1.10;;;8.50;99.90;;;8.52;80.46;101009.50;5010212;28;20614;-66
2023/01/14 00:49:05;;;;;;;1.37;0.70;;;8.50;99.90;;;8.48;80.67;101013.22;5008971;28;20633;-66
2023/01/14 00:51:33;;;;;;;4.87;1.03;;;8.50;99.90;;;8.45;80.04;101008.19;5013290;28;21245;-65
2023/01/14 00:54:02;;;;;;;5.03;1.23;;;8.40;99.90;;;8.48;80.49;101005.41;5008388;28;20643;-66
2023/01/14 00:56:29;;;;;;;3.83;1.00;;;8.50;99.90;;;8.47;80.08;101007.19;5037135;28;21226;-65
2023/01/14 00:58:56;;;;;;;10.13;1.20;;;8.40;99.90;;;8.49;79.99;101014.91;5024348;28;20636;-67
2023/01/14 01:01:23;;;;;;;2.17;1.00;;;8.50;99.90;;;8.51;80.18;101010.44;5032516;28;20659;-65
2023/01/14 01:03:55;;;;;;;2.80;1.37;;;8.50;99.90;;;8.53;80.52;101012.03;5025296;28;21106;-66
2023/01/14 01:06:25;;;;;;;1.43;0.80;;;8.50;99.90;;;8.56;79.38;101009.25;5010287;28;20636;-66
2023/01/14 01:08:58;;;;;;;1.50;0.87;;;8.50;99.90;;;8.55;79.98;101002.38;5011661;28;20633;-66
2023/01/14 01:11:26;;;;;;;2.27;1.30;;;8.50;99.90;;;8.57;79.26;101007.50;5010661;28;20649;-67
2023/01/14 01:13:55;;;;;;;0.90;0.90;;;8.50;99.90;;;8.58;79.50;101009.19;5011058;28;20629;-66
2023/01/14 01:16:23;;;;;;;3.53;0.83;;;8.60;99.90;;;8.57;79.66;101010.09;5027466;28;20644;-66
2023/01/14 01:18:55;;;;;;;1.43;0.57;;;8.50;99.90;;;8.56;79.82;101003.22;5030513;28;20664;-65
2023/01/14 01:21:24;;;;;;;1.33;0.50;;;8.60;99.90;;;8.49;79.58;101001.91;5012196;28;20653;-66
2023/01/14 01:23:51;;;;;;;1.27;0.70;;;8.50;99.90;;;8.43;79.96;101005.66;5042703;28;20708;-65
2023/01/14 01:26:23;;;;;;;3.10;1.13;;;8.50;99.90;;;8.37;80.01;101000.81;5022501;28;20621;-66
2023/01/14 01:28:53;;;;;;;4.77;1.17;;;8.40;99.90;;;8.35;80.74;101001.81;5014986;28;20723;-68
2023/01/14 01:31:21;;;;;;;1.07;0.57;;;8.40;99.90;;;8.29;80.11;101012.59;5019938;28;20653;-65
2023/01/14 01:33:49;;;;;;;1.63;0.60;;;8.30;99.90;;;8.28;80.37;101006.56;5025069;28;20667;-65
2023/01/14 01:36:22;;;;;;;0.60;0.50;;;8.30;99.90;;;8.24;80.76;101009.38;5030105;28;20633;-68
2023/01/14 01:38:50;;;;;;;0.57;0.40;;;8.20;99.90;;;8.23;81.01;101010.31;5018952;28;20675;-66
2023/01/14 01:41:21;;;;;;;0.43;0.43;;;8.20;99.90;;;8.16;81.28;101003.75;5017765;28;20710;-66
2023/01/14 01:44:07;;;;;;;3.33;0.97;;;8.20;99.90;;;8.09;81.25;101002.44;5021332;28;21286;-68
2023/01/14 01:46:37;;;;;;;0.30;0.30;;;8.10;99.90;;;8.01;82.01;101005.44;5020545;28;20683;-65
2023/01/14 01:49:16;;;;;;;5.43;1.20;;;8.00;99.90;;;7.96;82.13;101006.66;5014779;28;20617;-65
2023/01/14 01:52:29;;;;;;;5.03;1.03;;;7.90;99.90;;;7.89;82.59;101003.53;4999884;28;20759;-67
2023/01/14 01:55:06;;;;;;;4.77;0.70;;;7.90;99.90;;;7.87;82.96;101007.97;5010867;28;20650;-65
2023/01/14 01:57:33;;;;;;;1.10;0.80;;;7.90;99.90;;;7.88;82.61;101006.22;5020063;28;20632;-65
2023/01/14 02:00:07;;;;;;;0.83;0.83;;;7.90;99.90;;;7.80;82.63;101002.28;5012865;28;20612;-65
2023/01/14 02:02:34;;;;;;;1.37;0.60;;;7.80;99.90;;;7.74;82.74;101005.22;5021905;28;20637;-65
2023/01/14 02:05:01;;;;;;;0.40;0.40;;;7.80;99.90;;;7.70;83.92;101014.09;5008562;28;20652;-67
2023/01/14 02:07:28;;;;;;;1.37;0.90;;;7.70;99.90;;;7.68;84.04;101026.34;5021675;28;20675;-66
2023/01/14 02:10:03;;;;;;;4.40;0.70;;;7.70;99.90;;;7.67;84.33;101027.25;5029690;28;21181;-66
2023/01/14 02:13:14;;;;;;;0.60;0.60;;;7.70;99.90;;;7.66;83.34;101020.38;5009245;28;21013;-65
2023/01/14 02:16:32;;;;;;;0.70;0.67;;;7.70;99.90;;;7.64;84.19;101026.56;5013185;28;20690;-66
2023/01/14 02:19:13;;;;;;;2.57;1.00;;;7.70;99.90;;;7.60;83.42;101017.28;5031527;28;20663;-65
2023/01/14 02:21:52;;;;;;;3.10;0.70;;;7.60;99.90;;;7.56;84.81;101023.56;5028798;28;20649;-65
2023/01/14 02:24:54;;;;;;;0.80;0.63;;;7.60;99.90;;;7.53;84.94;101015.91;5026102;28;20663;-67
2023/01/14 02:27:49;;;;;;;0.67;0.67;;;7.60;99.90;;;7.53;84.73;101019.38;5024688;28;20622;-67
2023/01/14 02:30:36;;;;;;;0.40;0.40;;;7.50;99.90;;;7.56;84.52;101016.59;5052051;28;20642;-65
2023/01/14 02:33:30;;;;;;;1.40;1.07;;;7.60;99.90;;;7.58;84.43;101019.13;4996639;28;21070;-68
2023/01/14 02:36:06;;;;;;;11.43;1.20;;;7.60;99.90;;;7.57;84.62;101023.47;5012111;28;20637;-65
2023/01/14 02:39:03;;;;;;;0.90;0.90;;;7.60;99.90;;;7.57;85.66;101033.84;4998716;28;20624;-65
2023/01/14 02:44:40;;;;;;;3.50;1.17;;;7.60;99.90;;;7.56;86.04;101020.97;4999128;28;20668;-65
2023/01/14 02:47:16;;;;;;;2.77;0.97;;;7.60;99.90;;;7.56;85.58;101016.59;5013357;28;20628;-65
2023/01/14 02:49:46;;;;;;;3.07;1.70;;;7.60;99.90;;;7.57;85.49;101020.03;5009391;28;20680;-65
2023/01/14 02:52:14;;;;;;;2.10;1.07;;;7.60;99.90;;;7.58;85.07;101025.13;5009031;28;20625;-66
2023/01/14 02:55:02;;;;;;;2.57;0.80;;;7.60;99.90;;;7.59;86.08;101016.44;5012001;28;21162;-66
2023/01/14 02:57:50;;;;;;;1.10;1.10;;;7.60;99.90;;;7.62;85.71;101007.66;5003092;28;20687;-66
2023/01/14 03:01:03;;;;;;;1.27;1.17;;;7.70;99.90;;;7.62;85.67;101005.06;4996371;28;21294;-65
2023/01/14 03:03:51;;;;;;;1.70;1.00;;;7.70;99.90;;;7.64;85.26;101021.38;5021712;28;20663;-66
2023/01/14 03:06:49;;;;;;;5.27;1.33;;;7.70;99.90;;;7.65;85.95;101018.69;5018389;28;21005;-65
2023/01/14 03:09:53;;;;;;;6.83;0.87;;;7.70;99.90;;;7.64;85.35;101004.06;5014152;28;20695;-65
2023/01/14 03:12:43;;;;;;;2.97;1.30;;;7.70;99.90;;;7.65;85.12;101003.13;4946911;28;20641;-65
2023/01/14 03:15:19;;;;;;;2.20;0.80;;;7.70;99.90;;;7.66;86.13;100999.63;4994562;28;20660;-66
2023/01/14 03:18:24;;;;;;;3.70;1.27;;;7.70;99.90;;;7.66;85.78;100993.56;5028551;28;21222;-65
2023/01/14 03:21:04;;;;;;;1.50;1.17;;;7.70;99.90;;;7.66;85.56;100986.63;5006892;28;20664;-65
2023/01/14 03:23:49;;;;;;;2.40;0.83;;;7.70;99.90;;;7.72;85.91;100983.69;4995074;28;21240;-64
2023/01/14 03:26:17;;;;;;;1.10;0.73;;;7.80;99.90;;;7.66;85.91;100994.41;5012340;28;21172;-65
2023/01/14 03:28:49;;;;;;;0.57;0.57;;;7.70;99.90;;;7.64;86.46;100993.66;5007788;28;20629;-66
2023/01/14 03:31:23;;;;;;;3.13;0.90;;;7.70;99.90;;;7.63;86.96;100991.13;5024221;28;20664;-66
2023/01/14 03:34:07;;;;;;;1.00;0.70;;;7.60;99.90;;;7.60;87.18;100980.91;5009359;28;20647;-65
2023/01/14 03:36:37;;;;;;;0.77;0.60;;;7.60;99.90;;;7.57;86.75;100975.88;5002852;28;20632;-65
2023/01/14 03:39:13;;;;;;;1.73;1.00;;;7.60;99.90;;;7.53;87.46;100967.44;5029253;28;20648;-66
2023/01/14 03:44:46;;;;;;;0.93;0.80;;;7.50;99.90;;;7.47;87.09;100970.34;5006682;28;20656;-65
2023/01/14 03:47:14;;;;;;;1.90;0.77;;;7.50;99.90;;;7.45;87.20;100966.97;5024245;28;20691;-66
2023/01/14 03:49:41;;;;;;;3.53;1.23;;;7.50;99.90;;;7.41;88.46;100957.69;5010962;28;20724;-65
2023/01/14 03:52:17;;;;;;;3.80;1.00;;;7.40;99.90;;;7.38;87.94;100959.63;5011671;28;20988;-65
2023/01/14 03:55:36;;;;;;;0.30;0.30;;;7.40;99.90;;;7.31;88.94;100959.09;5010371;28;20617;-65
2023/01/14 03:58:24;;;;;;;0.40;0.40;;;7.40;99.90;;;7.30;88.98;100956.59;4974870;28;20636;-64
2023/01/14 04:01:05;;;;;;;3.30;0.80;;;7.30;99.90;;;7.27;89.27;100955.00;5023872;28;20632;-64
2023/01/14 04:03:32;;;;;;;1.20;0.57;;;7.30;99.90;;;7.27;90.08;100952.41;5032311;28;21205;-65
2023/01/14 04:05:59;;;;;;;1.33;0.50;;;7.30;99.90;;;7.30;88.82;100948.81;5030459;28;20755;-65
2023/01/14 04:08:26;;;;;;;4.68;0.47;;;7.30;99.90;;;7.28;89.64;100942.88;5030147;28;20604;-65
2023/01/14 04:10:53;;;;;;;6.63;0.70;;;7.30;99.90;;;7.27;89.54;100955.00;5006945;28;20733;-66
2023/01/14 04:16:05;;;;;;;2.53;1.30;;;7.20;99.90;;;7.24;89.45;100947.34;5036996;28;20620;-65
2023/01/14 04:18:32;;;;;;;2.17;1.10;;;7.20;99.90;;;7.27;89.34;100946.38;5050641;28;20619;-64
2023/01/14 04:20:59;;;;;;;0.57;0.40;;;7.20;99.90;;;7.30;89.89;100941.88;5051690;28;20632;-65
2023/01/14 04:23:26;;;;;;;2.50;0.60;;;7.30;99.90;;;7.32;89.91;100939.19;5031693;28;20751;-65
2023/01/14 04:26:00;;;;;;;0.67;0.40;;;7.30;99.90;;;7.33;88.83;100931.31;5030548;28;20631;-65
2023/01/14 04:28:27;;;;;;;0.37;0.37;;;7.40;99.90;;;7.33;89.79;100931.31;5020538;28;20619;-65
2023/01/14 04:30:54;;;;;;;0.40;0.40;;;7.30;99.90;;;7.32;89.96;100927.06;5037672;28;20643;-63
2023/01/14 04:33:22;;;;;;;0.40;0.40;;;7.30;99.90;;;7.31;89.63;100922.75;5037123;28;20625;-66
2023/01/14 04:35:50;;;;;;;6.23;1.00;;;7.30;99.90;;;7.33;88.98;100922.66;5029836;28;20640;-65
2023/01/14 04:38:20;;;;;;;2.57;0.50;;;7.40;99.90;;;7.33;89.96;100928.72;5013127;28;20651;-64
2023/01/14 04:40:52;;;;;;;0.60;0.60;;;7.30;99.90;;;7.33;89.78;100920.06;5027662;28;21013;-65
2023/01/14 04:43:19;;;;;;;1.17;0.70;;;7.40;99.90;;;7.31;89.25;100927.94;5015969;28;20974;-65
2023/01/14 04:45:52;;;;;;;0.30;0.30;;;7.30;99.90;;;7.28;89.86;100933.31;5008545;28;21078;-65
2023/01/14 04:48:22;;;;;;;0.47;0.47;;;7.30;99.90;;;7.24;89.52;100921.41;5026703;28;20721;-65
2023/01/14 04:50:50;;;;;;;1.00;0.50;;;7.30;99.90;;;7.27;90.23;100921.25;4992119;28;20630;-64
2023/01/14 04:53:21;;;;;;;0.57;0.57;;;7.30;99.90;;;7.26;90.44;100919.56;5030673;28;20632;-65
2023/01/14 04:55:52;;;;;;;2.53;0.87;;;7.30;99.90;;;7.24;90.13;100921.41;5023203;28;20635;-65
2023/01/14 04:58:19;;;;;;;1.33;0.63;;;7.30;99.90;;;7.21;90.18;100916.41;5028746;28;20621;-65
2023/01/14 05:00:47;;;;;;;2.03;0.90;;;7.20;99.90;;;7.17;90.27;100903.66;5016731;28;21259;-64
2023/01/14 05:03:15;;;;;;;0.60;0.60;;;7.20;99.90;;;7.13;90.64;100900.41;5029479;28;20682;-65
2023/01/14 05:05:42;;;;;;;0.50;0.50;;;7.20;99.90;;;7.14;90.32;100907.25;5027785;28;20687;-65
2023/01/14 05:08:10;;;;;;;2.60;0.40;;;7.10;99.90;;;7.12;90.19;100903.91;5029237;28;20620;-64
2023/01/14 05:10:39;;;;;;;0.73;0.53;;;7.10;99.90;;;7.10;91.25;100895.38;5030042;28;20694;-64
2023/01/14 05:13:07;;;;;;;6.30;1.13;;;7.10;99.90;;;7.10;90.53;100899.72;5029566;28;20625;-64
2023/01/14 05:15:40;;;;;;;0.57;0.57;;;7.10;99.90;;;7.09;90.73;100892.88;5026896;28;20288;-64
2023/01/14 05:18:10;;;;;;;1.57;0.60;;;7.10;99.90;;;7.08;91.15;100884.25;5024575;28;20671;-65
2023/01/14 05:20:38;;;;;;;1.03;0.80;;;7.10;99.90;;;7.08;91.71;100881.63;4996089;28;20748;-65
2023/01/14 05:23:11;;;;;;;4.10;0.87;;;7.10;99.90;;;7.09;92.11;100880.75;5022727;28;20631;-64
2023/01/14 05:25:38;;;;;;;0.82;0.75;;;7.10;99.90;;;7.11;91.79;100885.84;5041225;28;21043;-64
2023/01/14 05:28:09;;;;;;;0.20;0.20;;;7.10;99.90;;;7.14;92.12;100883.91;5032783;28;20264;-65
2023/01/14 05:30:36;;;;;;;2.97;0.53;;;7.10;99.90;;;7.15;91.63;100876.97;5016629;28;20783;-64
2023/01/14 05:33:03;;;;;;;2.60;0.60;;;7.10;99.90;;;7.20;91.61;100877.56;5018847;28;20633;-65
2023/01/14 05:35:31;;;;;;;2.03;0.77;;;7.20;99.90;;;7.24;91.21;100877.28;5013896;28;20716;-65
2023/01/14 05:37:58;;;;;;;0.50;0.50;;;7.20;99.90;;;7.25;91.97;100862.56;5026559;28;20650;-63
2023/01/14 05:40:26;;;;;;;0.70;0.50;;;7.30;99.90;;;7.28;91.22;100859.81;5047987;28;20742;-65
2023/01/14 05:45:48;;;;;;;0.50;0.50;;;7.30;99.90;;;7.32;90.34;100845.75;5014225;28;20660;-65
2023/01/14 05:48:25;;;;;;;1.73;0.93;;;7.30;99.90;;;7.36;90.29;100847.25;5020958;28;21085;-63
2023/01/14 05:50:58;;;;;;;1.80;0.90;;;7.40;99.90;;;7.34;90.42;100841.31;5034910;28;20739;-64
2023/01/14 05:53:29;;;;;;;0.50;0.50;;;7.40;99.90;;;7.32;90.11;100841.41;5039028;28;20640;-64
2023/01/14 05:55:58;;;;;;;0.30;0.30;;;7.30;99.90;;;7.29;90.31;100835.50;5021942;28;20712;-65
2023/01/14 05:58:26;;;;;;;0.53;0.53;;;7.30;99.90;;;7.29;90.99;100836.34;5015048;28;20644;-64
2023/01/14 06:06:43;;;;;;;2.20;0.70;;;7.30;99.90;;;7.23;90.41;100836.69;5052397;28;21033;-64
2023/01/14 06:09:12;;;;;;;3.87;0.90;;;7.30;99.90;;;7.21;89.79;100830.75;5026975;28;20668;-64
2023/01/14 06:11:45;;;;;;;2.00;1.27;;;7.20;99.90;;;7.21;89.83;100822.13;5032048;28;20696;-64
2023/01/14 06:14:12;;;;;;;1.65;1.08;;;7.20;99.90;;;7.21;89.52;100828.16;5032687;28;20666;-65
2023/01/14 06:16:39;;;;;;;0.57;0.53;;;7.20;99.90;;;7.17;90.16;100816.28;5032335;28;20194;-64
2023/01/14 06:19:10;;;;;;;1.17;0.57;;;7.20;99.90;;;7.14;90.00;100816.44;5033330;28;20715;-67
2023/01/14 06:21:37;;;;;;;0.50;0.50;;;7.20;99.90;;;7.14;90.37;100823.38;5031872;28;20656;-64
2023/01/14 06:24:05;;;;;;;6.53;0.43;;;7.10;99.90;;;7.12;91.10;100812.25;5020716;28;20632;-65
2023/01/14 06:26:35;;;;;;;0.50;0.33;;;7.10;99.90;;;7.12;90.69;100813.09;5023605;28;20648;-65
2023/01/14 06:29:09;;;;;;;0.53;0.53;;;7.10;99.90;;;7.08;90.78;100811.59;5021794;28;20623;-64
2023/01/14 06:31:37;;;;;;;4.33;0.87;;;7.10;99.90;;;7.08;91.50;100803.81;5023937;28;20974;-65
2023/01/14 06:34:05;;;;;;;0.30;0.30;;;7.10;99.90;;;7.05;91.37;100788.38;5041671;28;21185;-64
2023/01/14 06:36:37;;;;;;;0.60;0.60;;;7.10;99.90;;;7.04;92.09;100795.34;5032598;28;20608;-65
2023/01/14 06:39:04;;;;;;;0.53;0.50;;;7.10;99.90;;;7.07;91.63;100795.19;5020859;28;21051;-64
2023/01/14 06:41:31;;;;;;;0.83;0.57;;;7.10;99.90;;;7.06;91.57;100797.88;5032191;28;21016;-65
2023/01/14 06:43:58;;;;;;;0.57;0.57;;;7.10;99.90;;;7.07;91.70;100794.34;5020724;28;20629;-64
2023/01/14 06:46:25;;;;;;;0.37;0.37;;;7.10;99.90;;;7.02;92.84;100783.38;5031790;28;21081;-64
2023/01/14 06:48:51;;;;;;;1.75;0.70;;;7.00;99.90;;;7.02;93.00;100781.63;5015046;28;21234;-64
2023/01/14 06:51:20;;;;;;;0.57;0.40;;;7.00;99.90;;;7.01;92.48;100789.47;5031858;28;20252;-65
2023/01/14 06:53:47;;;;;;;0.38;0.38;;;7.00;99.90;;;7.04;93.17;100773.75;5035331;28;20648;-64
2023/01/14 06:56:17;;;;;;;1.70;0.60;;;7.10;99.90;;;7.07;92.60;100778.75;5034451;28;20245;-64
2023/01/14 06:58:47;;;;;;;0.30;0.30;;;7.10;99.90;;;7.08;92.62;100775.25;5028709;28;20991;-64
2023/01/14 07:01:14;;;;;;;0.87;0.40;;;7.10;99.90;;;7.09;93.32;100761.38;5031763;28;20709;-67
2023/01/14 07:03:41;;;;;;;0.57;0.57;;;7.10;99.90;;;7.17;92.75;100760.94;5031182;28;20632;-65
2023/01/14 07:06:08;;;;;;;0.80;0.80;;;7.20;99.90;;;7.18;93.28;100757.41;5022666;28;20223;-65
2023/01/14 07:08:35;;;;;;;1.73;0.57;;;7.20;99.90;;;7.19;92.67;100754.75;5028114;28;20632;-67
2023/01/14 07:11:02;;;;;;;0.70;0.70;;;7.20;99.90;;;7.22;93.15;100748.56;5032121;28;20660;-64
2023/01/14 07:13:29;;;;;;;0.70;0.60;;;7.20;99.90;;;7.22;92.90;100743.38;5027348;28;20641;-63
2023/01/14 07:15:57;;;;;;;0.30;0.30;;;7.20;99.90;;;7.23;92.48;100738.09;5040307;28;20628;-66
2023/01/14 07:18:25;;;;;;;0.30;0.30;;;7.20;99.90;;;7.23;93.45;100730.28;5038248;28;20632;-64
2023/01/14 07:20:56;;;;;;;0.33;0.33;;;7.30;99.90;;;7.27;92.51;100724.00;5032379;28;20648;-66
2023/01/14 07:23:24;;;;;;;0.40;0.40;;;7.30;99.90;;;7.25;92.58;100719.81;5017624;28;20635;-67
2023/01/14 07:25:55;;;;;;;0.60;0.60;;;7.30;99.90;;;7.23;93.85;100732.91;5031513;28;20710;-64
2023/01/14 07:28:25;;;;;;;0.30;0.30;;;7.20;99.90;;;7.22;93.85;100733.81;5030659;28;20639;-64
2023/01/14 07:30:52;;;;;;;0.80;0.80;;;7.20;99.90;;;7.25;93.34;100730.19;5017396;28;20590;-65
2023/01/14 07:33:21;;;;;;;0.37;0.37;;;7.20;99.90;;;7.25;93.82;100720.66;5021265;28;20663;-64
2023/01/14 07:35:51;;;;;;;0.80;0.80;;;7.30;99.90;;;7.28;93.27;100715.31;5024804;28;20629;-65
2023/01/14 07:38:19;;;;;;;0.40;0.40;;;7.20;99.90;;;7.26;94.29;100714.53;5020835;28;20646;-64
2023/01/14 07:40:46;;;;;;;0.40;0.40;;;7.30;99.90;;;7.30;93.78;100707.44;5012613;28;21001;-65
2023/01/14 07:43:13;;;;;;;0.30;0.30;;;7.30;99.90;;;7.32;93.95;100701.22;5015062;28;20728;-65
2023/01/14 07:45:40;;;;;;;1.63;0.60;;;7.30;99.90;;;7.35;94.22;100695.84;5028685;28;21032;-65
2023/01/14 07:48:07;;;;;;;4.97;0.63;;;7.30;99.90;;;7.34;93.80;100704.56;5025480;28;20633;-65
2023/01/14 07:50:34;;;;;;;0.73;0.73;;;7.30;99.90;;;7.36;94.74;100691.50;5013064;28;20280;-65
2023/01/14 07:53:01;;;;;;;0.43;0.43;;;7.30;99.90;;;7.35;94.08;100693.25;5025893;28;20201;-65
2023/01/14 07:55:28;;;;;;;0.88;0.80;;;7.40;99.90;;;7.36;94.74;100687.16;5042285;28;20231;-66
2023/01/14 07:57:55;;;;;;;4.90;0.90;;;7.40;99.90;;;7.39;94.88;100686.94;5018777;28;20207;-65
2023/01/14 08:00:22;;;;;;;3.67;1.17;;;7.40;99.90;;;7.40;95.12;100677.41;5014667;28;20671;-63
2023/01/14 08:02:49;;;;;;;0.50;0.50;;;7.40;99.90;;;7.45;94.33;100672.81;5030975;28;20198;-65
2023/01/14 08:05:16;;;;;;;3.90;1.30;;;7.50;99.90;;;7.56;94.20;100680.81;5029473;28;20676;-66
2023/01/14 08:07:43;;;;;;;0.80;0.80;;;7.50;99.90;;;7.63;93.66;100680.34;5029469;28;20202;-66
2023/01/14 08:10:11;;;;;;;0.80;0.50;;;7.60;99.90;;;7.67;94.07;100684.44;5041155;28;21019;-66
2023/01/14 08:12:38;;;;;;;5.43;1.70;;;7.70;99.90;;;7.65;94.29;100668.09;5047197;28;20603;-65
2023/01/14 08:15:06;;;;;;;1.67;0.80;;;7.70;99.90;;;7.74;93.48;100688.34;5012169;28;20617;-65
2023/01/14 08:17:33;;;;;;;5.80;1.03;;;7.70;99.90;;;7.81;94.01;100676.63;5010714;28;20629;-65
2023/01/14 08:20:01;;;;;;;3.58;0.50;;;7.80;99.90;;;7.78;93.63;100674.25;4993222;28;21022;-66
2023/01/14 08:22:29;;;;;;;1.73;0.60;;;7.80;99.90;;;7.75;94.25;100658.81;5020318;28;20194;-65
2023/01/14 08:24:57;;;;;;;1.80;0.50;;;7.70;99.90;;;7.74;94.80;100662.38;5011393;28;20685;-66
2023/01/14 08:27:26;;;;;;;0.40;0.40;;;7.70;99.90;;;7.80;95.70;100666.34;5014664;28;21020;-65
2023/01/14 08:29:54;;;;;;;2.30;0.70;;;7.80;99.90;;;7.81;95.82;100661.06;5044393;28;20655;-65
2023/01/14 08:32:22;;;;;;;2.33;0.63;;;7.80;99.90;;;7.81;95.89;100647.25;5010463;28;20736;-66
2023/01/14 08:34:49;;;;;;;1.77;0.50;;;7.80;99.90;;;7.81;96.18;100648.06;4993506;28;20623;-66
2023/01/14 08:37:16;;;;;;;2.20;0.93;;;7.80;99.90;;;7.78;97.22;100648.28;5025442;28;20640;-66
2023/01/14 08:39:43;;;;;;;3.07;0.93;;;7.80;99.90;;;7.80;97.71;100646.41;5009435;28;20640;-66
2023/01/14 08:42:10;;;;;;;0.40;0.40;;;7.80;99.90;;;7.81;98.21;100653.25;5016751;28;20637;-65
2023/01/14 08:44:36;;;;;;;0.90;0.70;;;7.80;99.90;;;7.80;97.62;100656.81;5013337;28;20630;-65
2023/01/14 08:47:03;;;;;;;0.63;0.63;;;7.80;99.90;;;7.87;98.05;100656.44;5011434;28;20636;-65
2023/01/14 08:49:31;;;;;;;3.90;0.93;;;7.90;99.90;;;7.91;97.98;100643.16;5034912;28;20656;-65
2023/01/14 08:51:59;;;;;;;1.70;0.53;;;7.90;99.90;;;7.90;98.38;100646.69;5018138;28;21231;-65
2023/01/14 08:54:26;;;;;;;0.30;0.30;;;7.90;99.90;;;7.94;99.50;100639.56;5011526;28;20716;-66
2023/01/14 08:56:56;;;;;;;0.60;0.60;;;7.90;99.90;;;7.93;100.00;100630.06;5009189;28;20637;-65
2023/01/14 08:59:24;;;;;;;1.50;0.80;;;7.90;99.90;;;7.95;99.49;100628.22;4993631;28;20936;-65
2023/01/14 09:01:52;;;;;;;1.37;0.57;;;8.00;99.90;;;7.98;99.50;100634.06;5015696;28;20747;-65
2023/01/14 09:04:24;;;;;;;1.33;0.67;;;8.00;99.90;;;7.94;100.00;100626.56;5032097;28;20635;-65
2023/01/14 09:18:03;;;;;;;1.13;0.60;;;8.00;99.90;;;8.05;100.00;100616.34;5028915;28;20733;-68
2023/01/14 09:20:40;;;;;;;0.90;0.90;;;8.00;99.90;;;8.09;99.26;100608.25;5030216;28;20988;-67
2023/01/14 09:23:09;;;;;;;0.70;0.60;;;8.10;99.90;;;8.07;100.00;100607.50;5020174;28;20641;-66
2023/01/14 09:25:36;;;;;;;0.53;0.53;;;8.00;99.90;;;8.10;100.00;100599.53;5010460;28;20661;-66
2023/01/14 09:28:04;;;;;;;1.40;0.80;;;8.10;99.90;;;8.13;99.40;100598.50;5011260;28;20654;-67
2023/01/14 09:30:31;;;;;;;1.33;0.57;;;8.10;99.90;;;8.20;99.26;100592.81;5010102;28;20629;-67
2023/01/14 09:32:59;;;;;;;0.93;0.93;;;8.20;99.90;;;8.27;98.52;100582.91;5015129;28;21028;-66
2023/01/14 09:35:27;;;;;;;8.57;1.00;;;8.20;99.90;;;8.32;97.40;100578.28;4992117;28;21034;-68
2023/01/14 09:37:54;;;;;;;0.60;0.60;;;8.30;99.90;;;8.34;97.11;100579.00;5010964;28;20643;-67
2023/01/14 09:40:20;;;;;;;1.50;1.10;;;8.30;99.90;;;8.35;96.23;100559.84;5011162;28;21049;-68
2023/01/14 09:42:50;;;;;;;1.70;0.73;;;8.30;99.90;;;8.42;96.73;100561.97;5012663;28;20637;-68
2023/01/14 09:45:33;;;;;;;7.10;0.90;;;8.40;99.90;;;8.47;95.55;100559.09;5007641;28;20668;-68
2023/01/14 09:48:13;;;;;;;1.57;0.43;;;8.40;99.90;;;8.56;96.09;100567.13;5009205;28;20629;-66
2023/01/14 09:50:58;;;;;;;0.70;0.70;;;8.50;99.90;;;8.59;94.66;100555.69;5007636;28;20691;-67
2023/01/14 09:53:53;;;;;;;0.80;0.50;;;8.50;99.90;;;8.63;95.06;100545.91;5018085;28;21246;-67
2023/01/14 09:56:29;;;;;;;0.70;0.70;;;8.60;99.90;;;8.65;94.59;100544.03;5009229;28;20617;-67
2023/01/14 09:59:07;;;;;;;0.70;0.70;;;8.60;99.90;;;8.68;93.93;100536.91;5028148;28;20620;-67
2023/01/14 10:01:56;;;;;;;10.73;1.00;;;8.70;99.90;;;8.70;93.55;100535.03;5003027;28;20641;-69
2023/01/14 10:04:47;;;;;;;0.40;0.40;;;8.70;99.90;;;8.71;93.63;100535.88;4994154;28;21017;-67
2023/01/14 10:07:15;;;;;;;0.97;0.47;;;8.70;99.90;;;8.77;93.54;100530.25;5005969;28;21260;-66
2023/01/14 10:09:50;;;;;;;0.63;0.50;;;8.70;99.90;;;8.77;93.36;100535.47;4995360;28;20621;-67
2023/01/14 10:12:25;;;;;;;8.30;0.83;;;8.80;99.90;;;8.76;93.04;100524.22;4995167;28;20746;-66
2023/01/14 10:15:02;;;;;;;0.90;0.70;;;8.80;99.90;;;8.78;93.09;100521.50;4996187;28;20662;-66
2023/01/14 10:17:36;;;;;;;0.50;0.50;;;8.70;99.90;;;8.76;93.40;100519.00;5010050;28;20981;-66
2023/01/14 10:20:30;;;;;;;0.50;0.50;;;8.70;99.90;;;8.81;93.50;100510.91;5005432;28;20640;-66
2023/01/14 10:23:11;;;;;;;0.40;0.40;;;8.80;99.90;;;8.84;93.38;100508.91;5022949;28;20648;-66
2023/01/14 10:25:45;;;;;;;0.83;0.83;;;8.80;99.90;;;8.84;92.82;100506.31;5020698;28;20665;-66
2023/01/14 10:28:15;;;;;;;0.60;0.60;;;8.80;99.90;;;8.89;93.45;100499.06;4996405;28;20721;-66
2023/01/14 10:30:43;;;;;;;0.70;0.40;;;8.80;99.90;;;8.92;93.21;100498.03;4993680;28;20649;-66
2023/01/14 10:33:17;;;;;;;0.30;0.30;;;8.90;99.90;;;8.93;92.98;100494.47;4988368;28;20633;-66
2023/01/14 10:35:52;;;;;;;2.30;1.23;;;8.90;99.90;;;8.94;93.15;100485.72;5011752;28;21002;-66
2023/01/14 10:38:24;;;;;;;0.40;0.40;;;8.90;99.90;;;8.93;93.53;100476.25;4998693;28;20621;-66
2023/01/14 10:40:59;;;;;;;1.17;0.50;;;8.90;99.90;;;8.98;93.16;100476.78;5012236;28;20660;-66
2023/01/14 10:43:31;;;;;;;0.60;0.60;;;8.90;99.90;;;9.01;93.31;100461.78;5023615;28;20675;-68
2023/01/14 10:45:58;;;;;;;0.40;0.40;;;8.90;99.90;;;9.01;92.99;100440.97;5008609;28;20669;-67
2023/01/14 10:48:29;;;;;;;0.67;0.67;;;9.00;99.90;;;9.08;92.42;100442.22;5011527;28;21239;-67
2023/01/14 10:51:36;;;;;;;8.37;1.13;;;9.10;99.90;;;9.12;92.28;100432.41;4993287;28;20680;-67
2023/01/14 10:54:22;;;;;;;1.70;0.60;;;9.10;99.90;;;9.13;91.90;100434.94;4999090;28;20633;-65
2023/01/14 10:56:51;;;;;;;0.80;0.43;;;9.10;99.90;;;9.14;91.52;100428.78;5010305;28;20641;-67
2023/01/14 10:59:40;;;;;;;0.40;0.40;;;9.10;99.90;;;9.17;91.83;100419.94;5014630;28;20677;-69
2023/01/14 11:02:32;;;;;;;0.53;0.43;;;9.10;99.90;;;9.17;91.87;100414.72;5001698;28;20656;-66
2023/01/14 11:05:02;;;;;;;0.60;0.40;;;9.10;99.90;;;9.21;91.30;100405.75;4995835;28;20721;-66
2023/01/14 11:07:38;;;;;;;0.53;0.53;;;9.10;99.90;;;9.23;91.48;100403.88;4995406;28;20756;-68
2023/01/14 11:10:24;;;;;;;0.50;0.50;;;9.20;99.90;;;9.25;90.78;100410.66;4995021;28;20718;-67
2023/01/14 11:12:52;;;;;;;3.90;1.33;;;9.20;99.90;;;9.31;90.36;100401.56;5004531;28;20639;-67
2023/01/14 11:15:41;;;;;;;0.63;0.60;;;9.20;99.90;;;9.32;89.97;100387.63;4999259;28;20628;-67
2023/01/14 11:18:27;;;;;;;1.00;0.90;;;9.20;99.90;;;9.28;90.35;100373.97;5013234;28;20684;-65